createdAt,value
2023-05-19T00:01:24.894Z,2.05
2023-05-19T00:03:54.236Z,1.50
2023-05-19T00:06:26.861Z,1.10
2023-05-19T00:09:04.913Z,1.00
2023-05-19T00:11:32.219Z,3.00
2023-05-19T00:14:00.411Z,1.65
2023-05-19T00:16:29.319Z,1.70
2023-05-19T00:18:58.354Z,2.95
2023-05-19T00:21:25.268Z,1.20
2023-05-19T00:23:52.397Z,2.40
2023-05-19T00:26:19.295Z,1.50
2023-05-19T00:28:46.133Z,1.40
2023-05-19T00:31:13.042Z,1.02
2023-05-19T00:33:39.935Z,2.55
2023-05-19T00:36:07.212Z,0.90
2023-05-19T00:38:35.638Z,1.10
2023-05-19T00:41:04.045Z,1.70
2023-05-19T00:43:30.959Z,1.50
2023-05-19T00:45:58.326Z,1.20
2023-05-19T00:48:26.022Z,3.08
2023-05-19T00:50:56.071Z,2.73
2023-05-19T00:53:24.560Z,4.47
2023-05-19T00:55:51.508Z,3.50
2023-05-19T00:58:19.186Z,4.82
2023-05-19T01:00:46.416Z,4.13
2023-05-19T06:08:18.545Z,3.00
2023-05-19T06:10:47.356Z,2.30
2023-05-19T06:13:17.910Z,2.08
2023-05-19T06:15:44.851Z,1.48
2023-05-19T06:18:11.824Z,3.30
2023-05-19T06:20:38.664Z,3.15
2023-05-19T06:23:05.566Z,1.25
2023-05-19T06:25:32.755Z,2.25
2023-05-19T06:27:59.796Z,2.67
2023-05-19T06:30:26.653Z,1.65
2023-05-19T06:32:53.508Z,1.92
2023-05-19T06:35:20.352Z,1.73
2023-05-19T06:37:47.266Z,1.38
2023-05-19T06:40:14.239Z,2.28
2023-05-19T06:42:41.045Z,1.40
2023-05-19T06:45:08.525Z,1.98
2023-05-19T06:47:35.575Z,3.65
2023-05-19T06:50:02.740Z,1.00
2023-05-19T06:52:29.653Z,1.50
2023-05-19T06:54:56.540Z,1.23
2023-05-19T06:57:23.382Z,0.70
2023-05-19T06:59:50.269Z,1.33
2023-05-19T07:02:17.211Z,0.60
2023-05-19T07:04:44.315Z,1.40
2023-05-19T07:07:11.205Z,0.80
2023-05-19T07:09:38.080Z,0.53
2023-05-19T07:12:05.140Z,1.00
2023-05-19T07:14:32.066Z,1.73
2023-05-19T07:16:58.846Z,2.15
2023-05-19T07:19:25.985Z,1.00
2023-05-19T07:21:53.136Z,2.95
2023-05-19T07:24:21.426Z,1.70
2023-05-19T07:26:48.300Z,1.88
2023-05-19T07:29:15.234Z,1.55
2023-05-19T07:31:42.093Z,1.23
2023-05-19T07:34:09.031Z,0.88
2023-05-19T07:36:36.183Z,1.27
2023-05-19T07:39:03.412Z,1.40
2023-05-19T07:41:30.319Z,1.15
2023-05-19T07:43:57.193Z,3.00
2023-05-19T07:46:24.066Z,2.17
2023-05-19T07:48:51.010Z,1.50
2023-05-19T07:51:19.411Z,1.67
2023-05-19T07:53:47.143Z,2.15
2023-05-19T07:56:14.052Z,2.00
2023-05-19T07:58:40.991Z,1.05
2023-05-19T08:01:07.876Z,0.83
2023-05-19T08:03:35.115Z,2.08
2023-05-19T08:06:02.666Z,1.13
2023-05-19T08:08:29.494Z,1.65
2023-05-19T08:10:56.340Z,3.17
2023-05-19T08:13:23.216Z,1.50
2023-05-19T08:15:50.181Z,1.83
2023-05-19T08:18:17.051Z,0.43
2023-05-19T08:20:43.996Z,0.90
2023-05-19T08:23:10.833Z,1.00
2023-05-19T08:25:40.718Z,2.40
2023-05-19T08:28:07.604Z,1.40
2023-05-19T08:30:34.591Z,1.60
2023-05-19T08:33:02.315Z,1.88
2023-05-19T08:35:29.292Z,0.80
2023-05-19T08:37:56.395Z,1.13
2023-05-19T08:40:23.494Z,1.00
2023-05-19T08:42:50.638Z,1.50
2023-05-19T08:45:17.757Z,2.72
2023-05-19T08:47:47.098Z,1.13
2023-05-19T08:50:19.692Z,1.20
2023-05-19T08:53:01.530Z,1.00
2023-05-19T08:55:36.916Z,1.30
2023-05-19T08:58:04.971Z,0.65
2023-05-19T09:00:33.087Z,0.82
2023-05-19T09:05:33.694Z,0.98
2023-05-19T09:08:02.868Z,0.50
2023-05-19T09:10:29.886Z,0.70
2023-05-19T09:12:56.842Z,0.65
2023-05-19T09:15:27.409Z,0.67
2023-05-19T09:18:12.090Z,1.80
2023-05-19T09:20:44.660Z,2.50
2023-05-19T09:23:16.362Z,1.17
2023-05-19T09:25:53.318Z,2.40
2023-05-19T09:28:25.173Z,3.20
2023-05-19T09:31:11.231Z,1.75
2023-05-19T09:33:45.549Z,1.40
2023-05-19T09:36:13.766Z,1.23
2023-05-19T09:38:41.295Z,1.05
2023-05-19T09:41:09.065Z,1.40
2023-05-19T09:43:36.638Z,1.30
2023-05-19T09:46:09.545Z,2.55
2023-05-19T09:48:38.134Z,1.40
2023-05-19T09:51:08.083Z,1.23
2023-05-19T09:53:50.589Z,1.15
2023-05-19T09:56:17.620Z,0.60
2023-05-19T09:58:56.183Z,1.00
2023-05-19T10:01:23.304Z,0.97
2023-05-19T10:03:52.390Z,1.27
2023-05-19T10:06:20.730Z,1.70
2023-05-19T10:08:50.441Z,1.42
2023-05-19T10:11:17.986Z,0.77
2023-05-19T10:13:47.216Z,0.82
2023-05-19T10:16:16.558Z,1.65
2023-05-19T10:18:43.857Z,0.45
2023-05-19T10:21:12.275Z,0.90
2023-05-19T10:23:39.297Z,1.50
2023-05-19T10:26:07.513Z,0.93
2023-05-19T10:28:43.450Z,0.77
2023-05-19T10:34:19.187Z,0.40
2023-05-19T10:36:52.360Z,0.38
2023-05-19T10:39:36.132Z,0.20
2023-05-19T10:42:27.916Z,0.80
2023-05-19T10:45:13.416Z,0.80
2023-05-19T10:47:43.881Z,1.17
2023-05-19T10:50:11.182Z,1.48
2023-05-19T10:52:40.222Z,1.67
2023-05-19T10:55:17.497Z,0.73
2023-05-19T10:58:00.499Z,0.50
2023-05-19T11:00:28.796Z,0.80
2023-05-19T11:03:15.912Z,0.57
2023-05-19T11:05:45.628Z,0.73
2023-05-19T11:08:13.207Z,1.13
2023-05-19T11:10:43.568Z,1.10
2023-05-19T11:13:19.908Z,1.30
2023-05-19T11:15:46.804Z,2.55
2023-05-19T11:18:16.163Z,0.82
2023-05-19T11:20:44.373Z,1.00
2023-05-19T11:23:18.931Z,1.00
2023-05-19T11:25:54.442Z,0.77
2023-05-19T11:28:28.184Z,0.38
2023-05-19T11:30:57.548Z,1.00
2023-05-19T11:33:28.213Z,0.52
2023-05-19T11:35:58.476Z,0.50
2023-05-19T11:38:26.780Z,0.40
2023-05-19T11:40:54.692Z,1.05
2023-05-19T11:43:25.899Z,1.13
2023-05-19T11:45:54.826Z,1.15
2023-05-19T11:48:22.639Z,0.30
2023-05-19T11:50:50.951Z,1.50
2023-05-19T11:53:19.882Z,0.40
2023-05-19T11:55:48.118Z,0.37
2023-05-19T11:58:15.827Z,0.50
2023-05-19T12:00:46.429Z,0.32
2023-05-19T12:03:13.749Z,0.20
2023-05-19T12:05:45.697Z,0.45
2023-05-19T12:08:13.251Z,0.20
2023-05-19T12:10:40.992Z,0.50
2023-05-19T12:13:09.588Z,0.93
2023-05-19T12:15:38.073Z,0.70
2023-05-19T12:18:05.048Z,1.63
2023-05-19T12:20:35.444Z,1.55
2023-05-19T12:23:03.131Z,1.48
2023-05-19T12:25:31.250Z,2.40
2023-05-19T12:28:00.412Z,1.20
2023-05-19T12:30:31.581Z,2.33
2023-05-19T12:32:59.253Z,1.20
2023-05-19T12:35:32.156Z,0.95
2023-05-19T12:38:04.173Z,0.82
2023-05-19T12:40:31.197Z,0.83
2023-05-19T12:42:59.396Z,1.05
2023-05-19T12:45:28.450Z,0.30
2023-05-19T12:47:56.100Z,0.80
2023-05-19T12:50:30.966Z,0.80
2023-05-19T12:52:59.716Z,0.93
2023-05-19T12:55:26.929Z,1.40
2023-05-19T12:57:58.210Z,0.80
2023-05-19T13:00:28.436Z,0.85
2023-05-19T13:03:05.660Z,1.30
2023-05-19T13:05:34.575Z,1.10
2023-05-19T13:08:05.776Z,0.90
2023-05-19T13:10:34.714Z,1.20
2023-05-19T13:13:02.330Z,1.00
2023-05-19T13:15:34.576Z,0.70
2023-05-19T13:18:03.652Z,0.50
2023-05-19T13:20:31.159Z,1.07
2023-05-19T13:22:58.120Z,2.08
2023-05-19T13:25:25.174Z,1.48
2023-05-19T13:27:52.215Z,0.80
2023-05-19T13:30:19.760Z,0.90
2023-05-19T13:32:47.111Z,0.60
2023-05-19T13:35:15.313Z,1.00
2023-05-19T13:37:42.895Z,0.50
2023-05-19T13:40:10.341Z,0.70
2023-05-19T13:42:37.939Z,0.40
2023-05-19T13:45:05.567Z,0.60
2023-05-19T13:47:32.623Z,0.20
2023-05-19T13:49:59.551Z,0.80
2023-05-19T13:52:28.332Z,1.60
2023-05-19T13:54:57.430Z,1.00
2023-05-19T13:57:25.544Z,0.60
2023-05-19T14:00:02.676Z,0.90
2023-05-19T14:02:31.034Z,1.08
2023-05-19T14:04:58.155Z,0.65
2023-05-19T14:07:25.745Z,0.90
2023-05-19T14:09:53.089Z,1.48
2023-05-19T14:12:21.610Z,0.80
2023-05-19T14:14:52.280Z,0.80
2023-05-19T14:17:19.200Z,0.60
2023-05-19T14:19:46.162Z,1.08
2023-05-19T14:22:13.465Z,0.93
2023-05-19T14:24:41.524Z,1.15
2023-05-19T14:27:08.428Z,1.85
2023-05-19T14:29:35.478Z,1.80
2023-05-19T14:32:03.351Z,1.27
2023-05-19T14:34:30.715Z,0.82
2023-05-19T14:36:57.997Z,0.77
2023-05-19T14:39:24.810Z,1.37
2023-05-19T14:41:53.003Z,1.17
2023-05-19T14:44:19.930Z,1.05
2023-05-19T14:46:46.840Z,1.25
2023-05-19T14:49:13.862Z,1.70
2023-05-19T14:51:40.707Z,1.35
2023-05-19T14:54:07.572Z,1.20
2023-05-19T14:56:34.680Z,1.48
2023-05-19T14:59:01.485Z,2.17
2023-05-19T15:01:28.316Z,2.50
2023-05-19T15:03:55.410Z,1.87
2023-05-19T15:06:22.427Z,1.83
2023-05-19T15:08:49.557Z,2.60
2023-05-19T15:11:16.426Z,2.40
2023-05-19T15:13:43.289Z,2.97
2023-05-19T15:16:17.413Z,2.42
2023-05-19T15:18:45.694Z,2.30
2023-05-19T15:21:12.877Z,4.13
2023-05-19T15:23:39.784Z,3.45
2023-05-19T15:26:07.345Z,2.67
2023-05-19T15:28:34.410Z,3.78
2023-05-19T15:31:01.360Z,3.70
2023-05-19T15:33:28.344Z,3.13
2023-05-19T15:35:55.230Z,3.10
2023-05-19T15:38:22.136Z,4.23
2023-05-19T15:40:49.021Z,3.50
2023-05-19T15:43:15.889Z,4.07
2023-05-19T15:45:42.709Z,2.95
2023-05-19T15:48:09.757Z,3.50
2023-05-19T15:50:37.010Z,3.63
2023-05-19T15:53:04.021Z,3.08
2023-05-19T15:55:30.966Z,2.80
2023-05-19T15:57:57.864Z,3.87
2023-05-19T16:00:24.714Z,2.42
2023-05-19T16:02:51.710Z,2.40
2023-05-19T16:05:18.795Z,2.60
2023-05-19T16:07:45.626Z,2.35
2023-05-19T16:10:12.583Z,2.08
2023-05-19T16:12:39.587Z,2.50
2023-05-19T16:15:06.969Z,1.83
2023-05-19T16:17:34.716Z,1.92
2023-05-19T16:20:04.332Z,3.17
2023-05-19T16:22:31.401Z,4.40
2023-05-19T16:24:58.255Z,4.63
2023-05-19T16:27:25.130Z,4.65
2023-05-19T16:29:52.060Z,3.83
2023-05-19T16:32:19.003Z,3.13
2023-05-19T16:34:45.844Z,2.38
2023-05-19T16:37:12.700Z,2.38
2023-05-19T16:39:40.313Z,2.53
2023-05-19T16:42:07.350Z,2.65
2023-05-19T16:44:34.215Z,1.55
2023-05-19T16:47:01.172Z,2.17
2023-05-19T16:49:28.338Z,2.15
2023-05-19T16:51:55.844Z,2.53
2023-05-19T16:54:23.441Z,2.63
2023-05-19T16:56:50.479Z,2.88
2023-05-19T16:59:17.520Z,3.70
2023-05-19T17:01:44.825Z,4.45
2023-05-19T17:04:11.880Z,4.45
2023-05-19T17:06:38.691Z,4.25
2023-05-19T17:09:05.602Z,4.03
2023-05-19T17:11:32.466Z,2.55
2023-05-19T17:13:59.454Z,4.00
2023-05-19T17:16:26.526Z,5.13
2023-05-19T17:18:53.498Z,5.00
2023-05-19T17:21:20.445Z,3.57
2023-05-19T17:23:47.316Z,3.53
2023-05-19T17:26:15.833Z,3.13
2023-05-19T17:28:42.704Z,2.65
2023-05-19T17:31:11.313Z,2.38
2023-05-19T17:33:39.225Z,3.58
2023-05-19T17:36:07.260Z,6.75
2023-05-19T17:38:34.653Z,14.33
2023-05-19T17:41:09.658Z,10.30
2023-05-19T17:43:37.455Z,7.05
2023-05-19T17:46:05.019Z,5.40
2023-05-19T17:48:32.533Z,4.53
2023-05-19T17:51:00.200Z,4.10
2023-05-19T17:53:27.370Z,5.32
2023-05-19T17:55:59.417Z,3.17
2023-05-19T17:58:26.878Z,4.22
2023-05-19T18:00:54.783Z,5.47
2023-05-19T18:03:22.876Z,7.72
2023-05-19T18:05:50.291Z,5.72
2023-05-19T18:08:17.770Z,6.90
2023-05-19T18:10:46.123Z,4.90
2023-05-19T18:13:16.044Z,4.50
2023-05-19T18:15:43.520Z,3.78
2023-05-19T18:18:10.961Z,3.97
2023-05-19T18:20:38.858Z,3.55
2023-05-19T18:23:06.013Z,3.00
2023-05-19T18:25:33.010Z,4.63
2023-05-19T18:27:59.870Z,3.10
2023-05-19T18:30:26.843Z,3.05
2023-05-19T18:32:53.965Z,3.17
2023-05-19T18:35:23.823Z,2.10
2023-05-19T18:37:50.776Z,1.58
2023-05-19T18:40:17.656Z,1.50
2023-05-19T18:42:44.575Z,1.30
2023-05-19T18:45:11.764Z,1.77
2023-05-19T18:47:38.579Z,1.90
2023-05-19T18:50:07.034Z,1.98
2023-05-19T18:52:33.965Z,1.85
2023-05-19T18:55:01.212Z,2.97
2023-05-19T18:57:28.114Z,3.00
2023-05-19T18:59:54.954Z,3.25
2023-05-19T19:02:21.912Z,3.45
2023-05-19T19:04:48.990Z,3.03
2023-05-19T19:07:15.946Z,3.05
2023-05-19T19:09:43.904Z,3.53
2023-05-19T19:12:11.214Z,2.63
2023-05-19T19:14:38.727Z,2.87
2023-05-19T19:17:06.118Z,2.63
2023-05-19T19:19:33.301Z,2.97
2023-05-19T19:22:00.351Z,2.60
2023-05-19T19:24:28.551Z,2.80
2023-05-19T19:26:55.547Z,2.88
2023-05-19T19:29:22.413Z,3.75
2023-05-19T19:31:49.410Z,5.60
2023-05-19T19:34:19.185Z,5.10
2023-05-19T19:36:47.790Z,5.45
2023-05-19T19:39:14.748Z,5.75
2023-05-19T19:41:41.664Z,4.85
2023-05-19T19:44:08.549Z,3.85
2023-05-19T19:46:35.721Z,4.20
2023-05-19T19:49:02.681Z,4.72
2023-05-19T19:51:29.647Z,4.65
2023-05-19T19:53:56.512Z,2.33
2023-05-19T19:56:24.817Z,2.65
2023-05-19T19:58:51.725Z,2.53
2023-05-19T20:01:20.623Z,2.30
2023-05-19T20:03:48.110Z,2.10
2023-05-19T20:06:15.253Z,1.50
2023-05-19T20:08:42.131Z,2.20
2023-05-19T20:11:09.406Z,2.20
2023-05-19T20:13:36.505Z,2.00
2023-05-19T20:16:03.494Z,2.80
2023-05-19T20:18:30.879Z,2.15
2023-05-19T20:20:57.932Z,2.40
2023-05-19T20:23:24.800Z,2.20
2023-05-19T20:26:10.310Z,1.75
2023-05-19T20:28:38.448Z,3.05
2023-05-19T20:31:05.818Z,2.33
2023-05-19T20:33:32.775Z,2.00
2023-05-19T20:35:59.793Z,4.63
2023-05-19T20:38:26.724Z,2.15
2023-05-19T20:40:54.630Z,2.47
2023-05-19T20:43:21.586Z,3.15
2023-05-19T20:45:48.617Z,2.40
2023-05-19T20:48:18.218Z,1.40
2023-05-19T20:50:45.132Z,1.20
2023-05-19T20:53:12.028Z,0.90
2023-05-19T20:55:39.093Z,1.15
2023-05-19T20:58:06.213Z,1.20
2023-05-19T21:00:33.521Z,1.90
2023-05-19T21:03:01.479Z,1.15
2023-05-19T21:05:28.607Z,1.30
2023-05-19T21:07:55.568Z,0.80
2023-05-19T21:10:22.444Z,1.05
2023-05-19T21:12:49.387Z,1.40
2023-05-19T21:15:16.303Z,1.35
2023-05-19T21:17:43.198Z,1.15
2023-05-19T21:20:10.618Z,1.10
2023-05-19T21:22:37.594Z,1.10
2023-05-19T21:25:04.816Z,1.35
2023-05-19T21:27:33.080Z,3.20
2023-05-19T21:30:00.288Z,1.73
2023-05-19T21:32:28.095Z,1.88
2023-05-19T21:34:55.145Z,1.33
2023-05-19T21:37:22.808Z,1.25
2023-05-19T21:39:49.648Z,1.38
2023-05-19T21:42:16.525Z,1.50
2023-05-19T21:44:43.407Z,3.63
2023-05-19T21:47:10.429Z,1.73
2023-05-19T21:49:39.940Z,2.55
2023-05-19T21:52:10.086Z,2.78
2023-05-19T21:54:36.942Z,2.80
2023-05-19T21:57:04.021Z,2.53
2023-05-19T21:59:31.057Z,2.58
2023-05-19T22:01:58.441Z,3.50
2023-05-19T22:04:25.585Z,2.30
2023-05-19T22:06:52.534Z,2.45
2023-05-19T22:09:19.415Z,1.93
2023-05-19T22:11:46.301Z,2.30
2023-05-19T22:14:13.285Z,2.35
2023-05-19T22:16:40.301Z,3.33
2023-05-19T22:19:07.548Z,1.67
2023-05-19T22:21:34.504Z,1.98
2023-05-19T22:24:01.332Z,2.13
2023-05-19T22:26:28.439Z,2.45
2023-05-19T22:28:55.778Z,2.30
2023-05-19T22:31:22.627Z,1.50
2023-05-19T22:33:49.520Z,1.77
2023-05-19T22:36:16.563Z,1.27
2023-05-19T22:38:43.627Z,1.10
2023-05-19T22:41:10.440Z,1.08
2023-05-19T22:43:37.355Z,0.80
2023-05-19T22:46:04.470Z,0.93
2023-05-19T22:48:33.276Z,1.15
2023-05-19T22:51:00.228Z,1.20
2023-05-19T22:53:27.110Z,0.75
2023-05-19T22:55:54.009Z,0.88
2023-05-19T22:58:20.894Z,1.20
2023-05-19T23:00:47.728Z,0.98
2023-05-19T23:03:14.617Z,1.38
2023-05-19T23:05:41.486Z,1.00
2023-05-19T23:08:08.278Z,1.10
2023-05-19T23:10:35.312Z,1.20
2023-05-19T23:13:02.180Z,0.80
2023-05-19T23:15:29.010Z,1.30
2023-05-19T23:17:56.026Z,0.73
2023-05-19T23:20:23.048Z,0.77
2023-05-19T23:22:49.852Z,1.40
2023-05-19T23:25:16.739Z,1.27
2023-05-19T23:27:43.650Z,1.05
2023-05-19T23:30:10.662Z,1.15
2023-05-19T23:32:37.579Z,1.60
2023-05-19T23:35:15.783Z,1.00
2023-05-19T23:37:42.888Z,1.00
2023-05-19T23:40:10.453Z,0.95
2023-05-19T23:42:37.478Z,1.40
2023-05-19T23:45:05.157Z,1.30
2023-05-19T23:47:32.172Z,1.50
2023-05-19T23:49:59.095Z,1.43
2023-05-19T23:52:25.904Z,1.67
2023-05-19T23:54:52.755Z,2.30
2023-05-19T23:57:19.657Z,1.33
2023-05-19T23:59:46.477Z,1.48
